Time;durP1;ratioP1;P1;durP2;ratioP2;P2;SDS_P1;SDS_P2;PMS_P1;PMS_P2;Temp;Humidity;BMP_temperature;BMP_pressure;BME280_temperature;BME280_humidity;BME280_pressure;Samples;Min_cycle;Max_cycle;Signal;HPM_P1;HPM_P2
2023/01/25 00:00:27;;;;;;;10.63;8.63;;;;;;;;;;5051685;28;20025;-61
2023/01/25 00:02:53;;;;;;;9.52;8.23;;;;;;;;;;5052021;28;20033;-61
2023/01/25 00:05:19;;;;;;;11.23;9.43;;;;;;;;;;5051385;28;20104;-62
2023/01/25 00:07:45;;;;;;;10.35;8.23;;;;;;;;;;5050417;28;20056;-61
2023/01/25 00:10:11;;;;;;;9.88;7.97;;;;;;;;;;5050861;28;20076;-62
2023/01/25 00:12:37;;;;;;;8.73;7.82;;;;;;;;;;5051368;28;20029;-59
2023/01/25 00:15:03;;;;;;;9.20;7.95;;;;;;;;;;5051491;28;20374;-61
2023/01/25 00:17:29;;;;;;;8.32;7.43;;;;;;;;;;5051220;28;20021;-61
2023/01/25 00:19:55;;;;;;;8.75;7.30;;;;;;;;;;5033824;28;20032;-62
2023/01/25 00:22:21;;;;;;;11.88;8.50;;;;;;;;;;5051078;28;20104;-61
2023/01/25 00:24:47;;;;;;;9.70;8.25;;;;;;;;;;5051000;28;20041;-61
2023/01/25 00:27:13;;;;;;;8.70;7.40;;;;;;;;;;5051260;28;20465;-61
2023/01/25 00:29:39;;;;;;;8.60;7.20;;;;;;;;;;5050959;28;20036;-61
2023/01/25 00:32:05;;;;;;;9.63;7.55;;;;;;;;;;5050713;28;20112;-61
2023/01/25 00:34:42;;;;;;;10.25;7.53;;;;;;;;;;5051073;28;20029;-59
2023/01/25 00:37:20;;;;;;;8.95;7.60;;;;;;;;;;5050835;28;20037;-59
2023/01/25 00:39:46;;;;;;;8.52;7.63;;;;;;;;;;5050976;28;20112;-61
2023/01/25 00:42:13;;;;;;;8.90;7.80;;;;;;;;;;5051063;28;20053;-61
2023/01/25 00:44:39;;;;;;;8.38;7.47;;;;;;;;;;5050801;28;20032;-61
2023/01/25 00:47:05;;;;;;;8.55;7.65;;;;;;;;;;5051072;28;20092;-61
2023/01/25 00:49:32;;;;;;;10.18;7.82;;;;;;;;;;5050785;28;20021;-61
2023/01/25 00:51:58;;;;;;;8.00;7.20;;;;;;;;;;5050421;28;20512;-60
2023/01/25 00:54:24;;;;;;;9.15;7.32;;;;;;;;;;5051450;28;20032;-61
2023/01/25 00:56:55;;;;;;;8.82;7.93;;;;;;;;;;5050660;28;20071;-60
2023/01/25 00:59:21;;;;;;;8.43;6.95;;;;;;;;;;5050862;28;20033;-61
2023/01/25 01:01:47;;;;;;;8.52;7.20;;;;;;;;;;5050646;28;20325;-61
2023/01/25 01:04:13;;;;;;;8.10;7.22;;;;;;;;;;5050786;28;20025;-60
2023/01/25 01:06:39;;;;;;;7.82;7.03;;;;;;;;;;5050355;28;20044;-60
2023/01/25 01:09:06;;;;;;;8.35;6.72;;;;;;;;;;5050367;28;20029;-61
2023/01/25 01:11:32;;;;;;;7.68;6.82;;;;;;;;;;5050488;28;20068;-61
2023/01/25 01:13:58;;;;;;;8.35;7.15;;;;;;;;;;5050687;28;20449;-61
2023/01/25 01:16:25;;;;;;;7.22;6.28;;;;;;;;;;5051042;28;20032;-61
2023/01/25 01:18:51;;;;;;;8.10;6.60;;;;;;;;;;5050388;28;20029;-62
2023/01/25 01:21:17;;;;;;;7.57;6.75;;;;;;;;;;5050674;28;20396;-61
2023/01/25 01:23:43;;;;;;;7.55;6.75;;;;;;;;;;5050079;28;20037;-61
2023/01/25 01:26:10;;;;;;;7.25;6.50;;;;;;;;;;5050588;28;20078;-61
2023/01/25 01:28:39;;;;;;;8.00;6.40;;;;;;;;;;5050396;28;20531;-61
2023/01/25 01:31:07;;;;;;;7.28;6.20;;;;;;;;;;5050446;28;20057;-61
2023/01/25 01:33:33;;;;;;;7.00;6.30;;;;;;;;;;5032394;28;20040;-62
2023/01/25 01:36:05;;;;;;;7.88;6.68;;;;;;;;;;5050490;28;20021;-61
2023/01/25 01:38:32;;;;;;;7.50;6.30;;;;;;;;;;5050013;28;20028;-62
2023/01/25 01:40:58;;;;;;;7.30;6.07;;;;;;;;;;5050491;28;20110;-61
2023/01/25 01:43:24;;;;;;;8.48;6.53;;;;;;;;;;5051342;28;20428;-61
2023/01/25 01:45:58;;;;;;;7.10;6.40;;;;;;;;;;5054093;28;20078;-61
2023/01/25 01:48:37;;;;;;;6.70;5.80;;;;;;;;;;5054640;28;20033;-60
2023/01/25 01:51:23;;;;;;;6.80;5.75;;;;;;;;;;5054177;28;20078;-61
2023/01/25 01:54:00;;;;;;;7.03;6.13;;;;;;;;;;5036582;28;20095;-61
2023/01/25 01:56:30;;;;;;;6.53;5.80;;;;;;;;;;5054453;28;20420;-61
2023/01/25 01:58:57;;;;;;;6.72;5.97;;;;;;;;;;5054368;28;20025;-61
2023/01/25 02:01:23;;;;;;;7.70;6.32;;;;;;;;;;5054324;28;20025;-61
2023/01/25 02:03:50;;;;;;;6.57;5.82;;;;;;;;;;5053693;28;20104;-60
2023/01/25 02:06:20;;;;;;;8.30;6.15;;;;;;;;;;5053756;28;20033;-61
2023/01/25 02:08:46;;;;;;;8.73;5.72;;;;;;;;;;5052972;28;20405;-61
2023/01/25 02:11:12;;;;;;;6.93;6.22;;;;;;;;;;5053705;28;20063;-61
2023/01/25 02:13:38;;;;;;;7.00;6.13;;;;;;;;;;5053532;28;20033;-60
2023/01/25 02:16:05;;;;;;;6.70;6.00;;;;;;;;;;5035405;28;20025;-60
2023/01/25 02:18:31;;;;;;;6.07;5.13;;;;;;;;;;5052933;28;20021;-60
2023/01/25 02:20:58;;;;;;;6.32;5.68;;;;;;;;;;5053894;28;20103;-59
2023/01/25 02:23:24;;;;;;;6.75;5.72;;;;;;;;;;5053907;28;20028;-60
2023/01/25 02:25:50;;;;;;;6.40;5.38;;;;;;;;;;5053432;28;20091;-60
2023/01/25 02:28:25;;;;;;;7.47;5.75;;;;;;;;;;5053583;28;20027;-60
2023/01/25 02:30:51;;;;;;;6.38;5.75;;;;;;;;;;5052894;28;20040;-60
2023/01/25 02:33:17;;;;;;;8.32;5.53;;;;;;;;;;5053432;28;20036;-60
2023/01/25 02:35:45;;;;;;;6.35;5.75;;;;;;;;;;5053179;28;20040;-60
2023/01/25 02:38:12;;;;;;;6.10;5.45;;;;;;;;;;5053357;28;20047;-60
2023/01/25 02:40:44;;;;;;;6.88;5.85;;;;;;;;;;5053103;28;20025;-60
2023/01/25 02:43:10;;;;;;;7.88;5.60;;;;;;;;;;5053291;28;20090;-60
2023/01/25 02:45:36;;;;;;;7.00;6.03;;;;;;;;;;5052672;28;20025;-59
2023/01/25 02:48:02;;;;;;;6.95;5.45;;;;;;;;;;5053144;28;20549;-61
2023/01/25 02:50:28;;;;;;;6.95;6.25;;;;;;;;;;5052708;28;20074;-61
2023/01/25 02:52:54;;;;;;;7.65;5.85;;;;;;;;;;5053443;28;20465;-62
2023/01/25 02:55:20;;;;;;;6.85;5.43;;;;;;;;;;5052950;28;20029;-61
2023/01/25 02:57:46;;;;;;;7.88;6.18;;;;;;;;;;5052852;28;20028;-61
2023/01/25 03:00:12;;;;;;;7.80;6.32;;;;;;;;;;5052649;28;20032;-61
2023/01/25 03:02:38;;;;;;;7.53;5.22;;;;;;;;;;5052630;28;20099;-60
2023/01/25 03:05:04;;;;;;;7.35;6.25;;;;;;;;;;5032843;28;20060;-61
2023/01/25 03:07:30;;;;;;;7.20;6.22;;;;;;;;;;5032416;28;20195;-60
2023/01/25 03:09:56;;;;;;;8.20;5.53;;;;;;;;;;5046562;28;20112;-61
2023/01/25 03:12:22;;;;;;;6.28;5.40;;;;;;;;;;5052980;28;20043;-61
2023/01/25 03:14:48;;;;;;;8.20;5.97;;;;;;;;;;5052489;28;20021;-62
2023/01/25 03:17:14;;;;;;;6.80;6.10;;;;;;;;;;5052589;28;20557;-61
2023/01/25 03:19:40;;;;;;;6.55;5.90;;;;;;;;;;5052327;28;20016;-61
2023/01/25 03:22:06;;;;;;;6.85;5.50;;;;;;;;;;5052526;28;20108;-61
2023/01/25 03:24:32;;;;;;;6.60;5.75;;;;;;;;;;5051935;28;20025;-61
2023/01/25 03:27:10;;;;;;;5.97;5.18;;;;;;;;;;5052482;28;20080;-61
2023/01/25 03:29:37;;;;;;;7.07;6.30;;;;;;;;;;5052218;28;20029;-61
2023/01/25 03:32:03;;;;;;;7.60;6.20;;;;;;;;;;5051736;28;20124;-61
2023/01/25 03:34:29;;;;;;;7.93;5.97;;;;;;;;;;5051951;28;20387;-61
2023/01/25 03:36:55;;;;;;;6.15;5.53;;;;;;;;;;5052541;28;20029;-60
2023/01/25 03:39:21;;;;;;;7.43;5.60;;;;;;;;;;5052151;28;20029;-60
2023/01/25 03:41:47;;;;;;;6.30;5.68;;;;;;;;;;5051935;28;20037;-60
2023/01/25 03:44:13;;;;;;;6.75;5.90;;;;;;;;;;5052120;28;20018;-61
2023/01/25 03:46:39;;;;;;;7.22;5.75;;;;;;;;;;5051228;28;20040;-61
2023/01/25 03:49:06;;;;;;;6.60;5.90;;;;;;;;;;5052054;28;20024;-60
2023/01/25 03:51:32;;;;;;;7.03;5.80;;;;;;;;;;5051667;28;20037;-60
2023/01/25 03:53:58;;;;;;;7.72;6.10;;;;;;;;;;5051943;28;20021;-60
2023/01/25 03:56:24;;;;;;;7.20;6.47;;;;;;;;;;5052138;28;20035;-60
2023/01/25 03:58:50;;;;;;;6.10;5.25;;;;;;;;;;5051517;28;20017;-60
2023/01/25 04:01:16;;;;;;;7.32;5.95;;;;;;;;;;5051130;28;20033;-59
2023/01/25 04:03:42;;;;;;;6.68;5.97;;;;;;;;;;5051294;28;20055;-60
2023/01/25 04:06:08;;;;;;;7.57;6.30;;;;;;;;;;5051037;28;20060;-60
2023/01/25 04:08:34;;;;;;;8.40;6.30;;;;;;;;;;5051417;28;20021;-60
2023/01/25 04:11:01;;;;;;;7.65;6.10;;;;;;;;;;5051493;28;20528;-60
2023/01/25 04:13:28;;;;;;;6.90;5.88;;;;;;;;;;5051292;28;20401;-59
2023/01/25 04:15:54;;;;;;;7.85;6.07;;;;;;;;;;5051159;28;20043;-60
2023/01/25 04:18:20;;;;;;;6.93;6.15;;;;;;;;;;5051477;28;20031;-60
2023/01/25 04:20:51;;;;;;;7.50;6.07;;;;;;;;;;5051222;28;20045;-60
2023/01/25 04:23:17;;;;;;;6.60;5.70;;;;;;;;;;5051335;28;20052;-60
2023/01/25 04:25:43;;;;;;;7.57;6.40;;;;;;;;;;5051128;28;20473;-60
2023/01/25 04:28:09;;;;;;;7.35;6.55;;;;;;;;;;5051306;28;20029;-60
2023/01/25 04:30:35;;;;;;;6.70;5.88;;;;;;;;;;5050426;28;20029;-60
2023/01/25 04:33:02;;;;;;;6.95;6.22;;;;;;;;;;5051182;28;20067;-60
2023/01/25 04:35:28;;;;;;;8.23;6.57;;;;;;;;;;5050826;28;20021;-59
2023/01/25 04:37:55;;;;;;;7.13;6.00;;;;;;;;;;5051492;28;20032;-61
2023/01/25 04:40:21;;;;;;;8.75;5.82;;;;;;;;;;5051156;28;20017;-61
2023/01/25 04:42:47;;;;;;;6.75;6.05;;;;;;;;;;5050892;28;20118;-61
2023/01/25 04:45:13;;;;;;;7.50;6.40;;;;;;;;;;5050411;28;20501;-60
2023/01/25 04:47:39;;;;;;;7.15;6.15;;;;;;;;;;5050912;28;20397;-60
2023/01/25 04:50:05;;;;;;;8.23;5.90;;;;;;;;;;5050973;28;20033;-59
2023/01/25 04:52:31;;;;;;;6.95;6.00;;;;;;;;;;5050224;28;20036;-59
2023/01/25 04:54:57;;;;;;;7.20;6.50;;;;;;;;;;5050889;28;20029;-59
2023/01/25 04:57:23;;;;;;;6.80;6.10;;;;;;;;;;5051129;28;20033;-60
2023/01/25 04:59:49;;;;;;;6.40;5.78;;;;;;;;;;5050633;28;20466;-61
2023/01/25 05:02:15;;;;;;;7.85;6.78;;;;;;;;;;5051145;28;20071;-61
2023/01/25 05:04:41;;;;;;;7.10;6.20;;;;;;;;;;5050562;28;20025;-60
2023/01/25 05:07:07;;;;;;;7.80;6.50;;;;;;;;;;5050418;28;20032;-60
2023/01/25 05:09:34;;;;;;;7.20;6.15;;;;;;;;;;5050551;28;20033;-60
2023/01/25 05:12:00;;;;;;;8.88;6.55;;;;;;;;;;5050769;28;20037;-60
2023/01/25 05:14:26;;;;;;;8.20;6.55;;;;;;;;;;5050980;28;20037;-60
2023/01/25 05:16:52;;;;;;;7.13;6.22;;;;;;;;;;5050692;28;20531;-61
2023/01/25 05:19:18;;;;;;;7.22;6.03;;;;;;;;;;5052916;28;20074;-60
2023/01/25 05:21:59;;;;;;;6.63;5.88;;;;;;;;;;5054484;28;20104;-61
2023/01/25 05:24:29;;;;;;;6.18;5.57;;;;;;;;;;5054936;28;20033;-60
2023/01/25 05:27:04;;;;;;;6.53;5.93;;;;;;;;;;5055170;28;20029;-61
2023/01/25 05:29:30;;;;;;;;;;;;;;;;;;5054762;28;20029;-61
2023/01/25 05:31:57;;;;;;;6.45;5.85;;;;;;;;;;5054838;28;19936;-63
2023/01/25 05:34:23;;;;;;;7.85;6.50;;;;;;;;;;5054802;28;20025;-62
2023/01/25 05:36:49;;;;;;;7.18;6.47;;;;;;;;;;5053924;28;20032;-63
2023/01/25 05:39:15;;;;;;;6.63;5.95;;;;;;;;;;5054390;28;20033;-62
2023/01/25 05:41:41;;;;;;;7.65;6.55;;;;;;;;;;5054255;28;20025;-62
2023/01/25 05:44:07;;;;;;;7.05;6.35;;;;;;;;;;5054353;28;20025;-61
2023/01/25 05:46:33;;;;;;;7.32;6.63;;;;;;;;;;5053805;28;20028;-61
2023/01/25 05:48:59;;;;;;;6.93;5.97;;;;;;;;;;5054233;28;20389;-61
2023/01/25 05:51:25;;;;;;;7.70;6.80;;;;;;;;;;5054464;28;20059;-61
2023/01/25 05:53:54;;;;;;;7.07;6.38;;;;;;;;;;5054019;28;20067;-62
2023/01/25 05:56:20;;;;;;;6.53;5.82;;;;;;;;;;5054177;28;20024;-61
2023/01/25 05:58:46;;;;;;;6.68;5.82;;;;;;;;;;5053831;28;20082;-61
2023/01/25 06:01:12;;;;;;;7.53;6.53;;;;;;;;;;5053513;28;20028;-61
2023/01/25 06:03:38;;;;;;;8.23;6.03;;;;;;;;;;5053073;28;20409;-61
2023/01/25 06:06:05;;;;;;;7.45;6.50;;;;;;;;;;5053642;28;20029;-60
2023/01/25 06:08:31;;;;;;;7.20;6.50;;;;;;;;;;5053655;28;20032;-60
2023/01/25 06:10:57;;;;;;;6.38;5.68;;;;;;;;;;5053784;28;20024;-59
2023/01/25 06:13:23;;;;;;;7.70;6.88;;;;;;;;;;5054316;28;20112;-60
2023/01/25 06:15:53;;;;;;;7.20;6.50;;;;;;;;;;5053745;28;20067;-59
2023/01/25 06:18:19;;;;;;;7.30;6.60;;;;;;;;;;5053866;28;20025;-60
2023/01/25 06:20:45;;;;;;;7.35;6.43;;;;;;;;;;5053174;28;20463;-60
2023/01/25 06:23:11;;;;;;;8.93;6.80;;;;;;;;;;5053841;28;20060;-60
2023/01/25 06:25:37;;;;;;;6.22;5.63;;;;;;;;;;5053599;28;20021;-60
2023/01/25 06:28:03;;;;;;;6.43;5.75;;;;;;;;;;5053796;28;20028;-61
2023/01/25 06:30:29;;;;;;;8.00;6.32;;;;;;;;;;5052963;28;20021;-60
2023/01/25 06:32:57;;;;;;;6.93;6.22;;;;;;;;;;5053244;28;20037;-61
2023/01/25 06:35:23;;;;;;;7.82;7.03;;;;;;;;;;5053799;28;20032;-60
2023/01/25 06:37:49;;;;;;;7.40;6.45;;;;;;;;;;5053343;28;20074;-61
2023/01/25 06:40:16;;;;;;;7.03;6.20;;;;;;;;;;5052797;28;20108;-61
2023/01/25 06:42:42;;;;;;;7.70;6.47;;;;;;;;;;5053195;28;20029;-60
2023/01/25 06:45:08;;;;;;;7.57;6.68;;;;;;;;;;5052783;28;20024;-60
2023/01/25 06:47:34;;;;;;;6.47;5.70;;;;;;;;;;5053266;28;20021;-63
2023/01/25 06:50:00;;;;;;;6.57;5.85;;;;;;;;;;5052281;28;20021;-63
2023/01/25 06:52:26;;;;;;;8.38;6.47;;;;;;;;;;5053197;28;20630;-60
2023/01/25 06:54:52;;;;;;;7.47;6.35;;;;;;;;;;5053596;28;20063;-60
2023/01/25 06:57:18;;;;;;;7.95;6.18;;;;;;;;;;5052873;28;20067;-60
2023/01/25 06:59:44;;;;;;;7.82;6.30;;;;;;;;;;5052973;28;20016;-60
2023/01/25 07:02:19;;;;;;;7.20;6.50;;;;;;;;;;5052547;28;20452;-60
2023/01/25 07:04:45;;;;;;;6.97;6.00;;;;;;;;;;5052562;28;20017;-60
2023/01/25 07:07:11;;;;;;;6.50;5.75;;;;;;;;;;5052878;28;20033;-60
2023/01/25 07:09:37;;;;;;;8.25;6.68;;;;;;;;;;5052400;28;20029;-59
2023/01/25 07:12:06;;;;;;;9.15;6.35;;;;;;;;;;5052823;28;20040;-60
2023/01/25 07:14:32;;;;;;;11.85;6.00;;;;;;;;;;5052237;28;20075;-59
2023/01/25 07:16:58;;;;;;;10.50;5.80;;;;;;;;;;5052841;28;20036;-59
2023/01/25 07:19:24;;;;;;;9.73;6.30;;;;;;;;;;5053088;28;20470;-60
2023/01/25 07:21:50;;;;;;;7.53;6.47;;;;;;;;;;5052368;28;20029;-60
2023/01/25 07:24:17;;;;;;;7.38;5.95;;;;;;;;;;5052560;28;20025;-60
2023/01/25 07:26:43;;;;;;;11.73;8.38;;;;;;;;;;5050960;28;20078;-59
2023/01/25 07:29:14;;;;;;;11.13;8.95;;;;;;;;;;5051642;28;20553;-60
2023/01/25 07:31:43;;;;;;;13.20;9.30;;;;;;;;;;5033373;28;20033;-60
2023/01/25 07:34:12;;;;;;;14.07;10.50;;;;;;;;;;5052520;28;20025;-60
2023/01/25 07:36:38;;;;;;;14.95;10.23;;;;;;;;;;5052183;28;20079;-60
2023/01/25 07:39:05;;;;;;;13.45;10.52;;;;;;;;;;5052109;28;20029;-60
2023/01/25 07:41:31;;;;;;;14.98;11.13;;;;;;;;;;5051312;28;20029;-60
2023/01/25 07:43:57;;;;;;;17.25;12.10;;;;;;;;;;5052314;28;20037;-59
2023/01/25 07:46:23;;;;;;;16.05;10.45;;;;;;;;;;5052081;28;20115;-59
2023/01/25 07:48:51;;;;;;;17.00;12.00;;;;;;;;;;5051100;28;20067;-59
2023/01/25 07:51:26;;;;;;;14.85;12.13;;;;;;;;;;5048852;28;20542;-59
2023/01/25 07:53:54;;;;;;;16.65;11.07;;;;;;;;;;5051519;28;20531;-59
2023/01/25 07:56:21;;;;;;;15.40;11.00;;;;;;;;;;5050334;28;20017;-60
2023/01/25 07:58:47;;;;;;;15.45;11.70;;;;;;;;;;5050839;28;20856;-60
2023/01/25 08:01:14;;;;;;;17.10;11.40;;;;;;;;;;5050486;28;20051;-60
2023/01/25 08:03:40;;;;;;;14.38;11.95;;;;;;;;;;5045557;28;20429;-60
2023/01/25 08:06:07;;;;;;;16.98;10.98;;;;;;;;;;5049048;28;20064;-60
2023/01/25 08:08:34;;;;;;;15.98;12.40;;;;;;;;;;5049899;28;20060;-59
2023/01/25 08:11:06;;;;;;;14.85;10.80;;;;;;;;;;5050543;28;20032;-59
2023/01/25 08:13:32;;;;;;;14.05;10.55;;;;;;;;;;5050306;28;20404;-60
2023/01/25 08:15:58;;;;;;;13.05;11.13;;;;;;;;;;5050533;28;20021;-59
2023/01/25 08:18:24;;;;;;;17.65;11.40;;;;;;;;;;5051340;28;20036;-59
2023/01/25 08:20:50;;;;;;;14.90;10.23;;;;;;;;;;5051341;28;20159;-59
2023/01/25 08:23:16;;;;;;;15.02;10.68;;;;;;;;;;5051168;28;20108;-59
2023/01/25 08:25:42;;;;;;;14.63;11.30;;;;;;;;;;5051254;28;20029;-60
2023/01/25 08:28:08;;;;;;;14.82;10.07;;;;;;;;;;5050965;28;20032;-60
2023/01/25 08:30:34;;;;;;;16.48;10.10;;;;;;;;;;5050760;28;20436;-60
2023/01/25 08:33:01;;;;;;;13.88;10.88;;;;;;;;;;5051421;28;20075;-60
2023/01/25 08:35:27;;;;;;;15.25;10.07;;;;;;;;;;5050796;28;20029;-59
2023/01/25 08:37:53;;;;;;;17.80;10.20;;;;;;;;;;5051313;28;20036;-60
2023/01/25 08:40:19;;;;;;;14.82;10.45;;;;;;;;;;5050534;28;20090;-60
2023/01/25 08:42:45;;;;;;;15.02;10.75;;;;;;;;;;5050196;28;20071;-60
2023/01/25 08:45:11;;;;;;;16.88;10.52;;;;;;;;;;5050394;28;20087;-60
2023/01/25 08:47:37;;;;;;;15.43;9.40;;;;;;;;;;5050403;28;20037;-60
2023/01/25 08:50:03;;;;;;;14.60;10.70;;;;;;;;;;5050481;28;20029;-60
2023/01/25 08:52:29;;;;;;;15.10;11.10;;;;;;;;;;5049433;28;20039;-60
2023/01/25 08:54:55;;;;;;;16.55;11.02;;;;;;;;;;5050507;28;20469;-60
2023/01/25 08:57:21;;;;;;;13.25;9.40;;;;;;;;;;5050690;28;20060;-60
2023/01/25 08:59:48;;;;;;;13.40;10.40;;;;;;;;;;5050798;28;20078;-60
2023/01/25 09:02:14;;;;;;;13.57;10.98;;;;;;;;;;5051077;28;20031;-60
2023/01/25 09:04:40;;;;;;;12.98;10.07;;;;;;;;;;5050431;28;20059;-60
2023/01/25 09:07:06;;;;;;;14.10;10.90;;;;;;;;;;5050931;28;20501;-60
2023/01/25 09:09:32;;;;;;;12.52;10.50;;;;;;;;;;5050605;28;20040;-60
2023/01/25 09:11:58;;;;;;;11.23;10.02;;;;;;;;;;5050889;28;20389;-60
2023/01/25 09:14:24;;;;;;;13.50;10.18;;;;;;;;;;5051294;28;20036;-60
2023/01/25 09:16:50;;;;;;;12.27;9.73;;;;;;;;;;5050696;28;20025;-60
2023/01/25 09:19:16;;;;;;;14.40;9.98;;;;;;;;;;5050345;28;20029;-58
2023/01/25 09:21:42;;;;;;;12.52;10.02;;;;;;;;;;5049863;28;20025;-59
2023/01/25 09:24:08;;;;;;;11.80;9.32;;;;;;;;;;5049884;28;20037;-59
2023/01/25 09:26:39;;;;;;;13.07;10.38;;;;;;;;;;5050036;28;20502;-59
2023/01/25 09:29:06;;;;;;;13.85;9.60;;;;;;;;;;5050891;28;20036;-59
2023/01/25 09:31:33;;;;;;;13.57;10.27;;;;;;;;;;5049401;28;20474;-59
2023/01/25 09:33:58;;;;;;;12.77;9.55;;;;;;;;;;5050283;28;20017;-59
2023/01/25 09:36:25;;;;;;;12.90;9.77;;;;;;;;;;5050997;28;20104;-59
2023/01/25 09:38:51;;;;;;;11.82;9.13;;;;;;;;;;5050502;28;20078;-59
2023/01/25 09:41:17;;;;;;;15.40;10.90;;;;;;;;;;5049546;28;20033;-60
2023/01/25 09:44:02;;;;;;;11.15;9.82;;;;;;;;;;5050468;28;20017;-60
2023/01/25 09:46:28;;;;;;;14.43;9.27;;;;;;;;;;5050520;28;20029;-59
2023/01/25 09:49:17;;;;;;;11.77;10.00;;;;;;;;;;5049506;28;20033;-60
2023/01/25 09:51:43;;;;;;;10.95;9.43;;;;;;;;;;5002476;28;20041;-60
2023/01/25 09:54:09;;;;;;;11.15;9.70;;;;;;;;;;5045174;28;20028;-60
2023/01/25 09:56:37;;;;;;;14.05;10.65;;;;;;;;;;5050335;28;20370;-60
2023/01/25 09:59:10;;;;;;;12.00;10.00;;;;;;;;;;5050578;28;20025;-60
2023/01/25 10:01:51;;;;;;;11.48;9.70;;;;;;;;;;5049531;28;20067;-59
2023/01/25 10:04:43;;;;;;;12.75;9.90;;;;;;;;;;5050830;28;20028;-60
2023/01/25 10:07:23;;;;;;;12.23;10.10;;;;;;;;;;5049567;28;20416;-59
2023/01/25 10:09:52;;;;;;;12.85;10.02;;;;;;;;;;5054003;28;20036;-60
2023/01/25 10:12:25;;;;;;;10.63;8.68;;;;;;;;;;5053381;28;20037;-60
2023/01/25 10:14:51;;;;;;;11.13;9.73;;;;;;;;;;5053832;28;20083;-60
2023/01/25 10:17:26;;;;;;;11.40;9.85;;;;;;;;;;5053291;28;20029;-60
2023/01/25 10:19:52;;;;;;;12.37;9.83;;;;;;;;;;5054036;28;20573;-60
2023/01/25 10:22:25;;;;;;;11.98;9.75;;;;;;;;;;5053251;28;20033;-60
2023/01/25 10:24:54;;;;;;;14.45;10.60;;;;;;;;;;5053521;28;20029;-60
2023/01/25 10:27:32;;;;;;;12.05;9.98;;;;;;;;;;5035518;28;20021;-60
2023/01/25 10:30:00;;;;;;;12.05;10.00;;;;;;;;;;5053771;28;20033;-60
2023/01/25 10:32:30;;;;;;;12.38;11.07;;;;;;;;;;5053907;28;20097;-60
2023/01/25 10:34:58;;;;;;;15.98;10.00;;;;;;;;;;5053319;28;20028;-61
2023/01/25 10:37:26;;;;;;;13.27;10.50;;;;;;;;;;5053801;28;20063;-60
2023/01/25 10:39:55;;;;;;;12.75;10.73;;;;;;;;;;5054063;28;20393;-60
2023/01/25 10:42:23;;;;;;;13.45;11.02;;;;;;;;;;5053331;28;20032;-60
2023/01/25 10:44:49;;;;;;;14.38;10.35;;;;;;;;;;5052222;28;20021;-60
2023/01/25 10:47:21;;;;;;;12.38;10.77;;;;;;;;;;5053087;28;20031;-60
2023/01/25 10:49:50;;;;;;;14.07;11.43;;;;;;;;;;5053077;28;20098;-59
2023/01/25 10:52:21;;;;;;;12.20;10.75;;;;;;;;;;5053344;28;20040;-59
2023/01/25 10:54:49;;;;;;;12.00;10.65;;;;;;;;;;5053138;28;20021;-59
2023/01/25 10:57:19;;;;;;;13.77;10.60;;;;;;;;;;5053285;28;20032;-58
2023/01/25 10:59:47;;;;;;;12.82;10.70;;;;;;;;;;5052645;28;20036;-59
2023/01/25 11:02:40;;;;;;;12.95;11.02;;;;;;;;;;5051517;28;20032;-59
2023/01/25 11:05:23;;;;;;;15.55;11.32;;;;;;;;;;5046548;28;20108;-59
2023/01/25 11:07:49;;;;;;;13.80;11.60;;;;;;;;;;5051323;28;20137;-59
2023/01/25 11:10:29;;;;;;;12.98;11.25;;;;;;;;;;5052009;28;20516;-60
2023/01/25 11:13:13;;;;;;;11.68;10.48;;;;;;;;;;5051831;28;20132;-60
2023/01/25 11:15:40;;;;;;;13.63;12.05;;;;;;;;;;5050776;28;20389;-59
2023/01/25 11:18:06;;;;;;;13.98;11.23;;;;;;;;;;5051636;28;20422;-60
2023/01/25 11:20:32;;;;;;;13.27;11.90;;;;;;;;;;5051907;28;20032;-59
2023/01/25 11:22:58;;;;;;;12.85;11.48;;;;;;;;;;5052621;28;20155;-60
2023/01/25 11:25:25;;;;;;;12.45;11.18;;;;;;;;;;5053067;28;20021;-60
2023/01/25 11:27:54;;;;;;;14.05;11.80;;;;;;;;;;5051941;28;20029;-60
2023/01/25 11:30:20;;;;;;;13.75;11.80;;;;;;;;;;5051507;28;20021;-59
2023/01/25 11:32:46;;;;;;;14.60;12.27;;;;;;;;;;5052119;28;20082;-60
2023/01/25 11:35:18;;;;;;;14.75;12.07;;;;;;;;;;5052424;28;20025;-60
2023/01/25 11:38:02;;;;;;;13.25;11.88;;;;;;;;;;5050386;28;20033;-60
2023/01/25 11:40:37;;;;;;;15.30;12.73;;;;;;;;;;5048354;28;20056;-60
2023/01/25 11:43:22;;;;;;;13.67;11.63;;;;;;;;;;5051993;28;20029;-60
2023/01/25 11:46:00;;;;;;;14.63;13.02;;;;;;;;;;5051070;28;20279;-60
2023/01/25 11:48:32;;;;;;;17.75;13.43;;;;;;;;;;5052352;28;20063;-60
2023/01/25 11:51:17;;;;;;;14.02;12.10;;;;;;;;;;5046418;28;20477;-60
2023/01/25 11:53:49;;;;;;;15.30;13.25;;;;;;;;;;5050346;28;20485;-61
2023/01/25 11:56:27;;;;;;;14.52;13.02;;;;;;;;;;5049412;28;20029;-60
2023/01/25 11:58:53;;;;;;;15.13;13.38;;;;;;;;;;5051068;28;20029;-61
2023/01/25 12:01:19;;;;;;;14.40;12.88;;;;;;;;;;5050945;28;20551;-60
2023/01/25 12:04:04;;;;;;;18.88;13.55;;;;;;;;;;5050704;28;20016;-60
2023/01/25 12:06:39;;;;;;;18.05;12.85;;;;;;;;;;5050370;28;20408;-60
2023/01/25 12:09:05;;;;;;;14.90;13.38;;;;;;;;;;5050726;28;20021;-60
2023/01/25 12:11:54;;;;;;;16.88;14.10;;;;;;;;;;5047937;28;20159;-60
2023/01/25 12:14:19;;;;;;;17.45;15.02;;;;;;;;;;5049274;28;20431;-60
2023/01/25 12:17:06;;;;;;;16.83;13.70;;;;;;;;;;5049757;28;20049;-60
2023/01/25 12:19:42;;;;;;;16.15;14.25;;;;;;;;;;5047411;28;20052;-60
2023/01/25 12:22:31;;;;;;;20.70;14.25;;;;;;;;;;5049973;28;20017;-60
2023/01/25 12:25:00;;;;;;;19.15;15.00;;;;;;;;;;5019530;28;20481;-60
2023/01/25 12:27:44;;;;;;;17.55;14.85;;;;;;;;;;5049977;28;20432;-60
2023/01/25 12:30:10;;;;;;;18.58;15.23;;;;;;;;;;5050019;28;20035;-60
2023/01/25 12:32:39;;;;;;;19.42;16.77;;;;;;;;;;5050246;28;20029;-60
2023/01/25 12:35:37;;;;;;;18.70;16.70;;;;;;;;;;5050493;28;20021;-60
2023/01/25 12:38:04;;;;;;;20.60;16.92;;;;;;;;;;4999342;28;20312;-61
2023/01/25 12:40:42;;;;;;;19.27;15.73;;;;;;;;;;5047671;28;20017;-60
2023/01/25 12:43:15;;;;;;;21.70;17.52;;;;;;;;;;5050306;28;20017;-60
2023/01/25 12:45:44;;;;;;;18.75;16.70;;;;;;;;;;5050143;28;20023;-60
2023/01/25 12:48:11;;;;;;;17.90;15.90;;;;;;;;;;5048983;28;20028;-61
2023/01/25 12:50:42;;;;;;;20.85;16.40;;;;;;;;;;5030950;28;20109;-60
2023/01/25 12:53:23;;;;;;;19.75;16.85;;;;;;;;;;5048175;28;20041;-60
2023/01/25 12:55:49;;;;;;;20.27;17.63;;;;;;;;;;5050429;28;20079;-60
2023/01/25 12:58:20;;;;;;;19.23;16.25;;;;;;;;;;5050739;28;20103;-60
2023/01/25 13:01:06;;;;;;;17.98;15.35;;;;;;;;;;5049849;28;20377;-59
2023/01/25 13:03:39;;;;;;;18.88;16.23;;;;;;;;;;5049607;28;20028;-60
2023/01/25 13:06:24;;;;;;;19.13;17.13;;;;;;;;;;5038875;28;20033;-61
2023/01/25 13:09:00;;;;;;;21.80;17.90;;;;;;;;;;5050348;28;20029;-61
2023/01/25 13:11:37;;;;;;;20.02;16.92;;;;;;;;;;5051076;28;20163;-61
2023/01/25 13:14:19;;;;;;;18.95;16.33;;;;;;;;;;5050550;28;20032;-61
2023/01/25 13:16:47;;;;;;;20.63;17.33;;;;;;;;;;5032511;28;20037;-60
2023/01/25 13:19:20;;;;;;;19.95;16.63;;;;;;;;;;5050894;28;20024;-60
2023/01/25 13:21:47;;;;;;;22.10;17.83;;;;;;;;;;5050570;28;20401;-60
2023/01/25 13:24:15;;;;;;;20.40;16.30;;;;;;;;;;5050740;28;20108;-60
2023/01/25 13:26:53;;;;;;;18.75;16.20;;;;;;;;;;5050667;28;20025;-60
2023/01/25 13:29:32;;;;;;;19.70;17.45;;;;;;;;;;5050193;28;20384;-60
2023/01/25 13:31:58;;;;;;;19.55;16.92;;;;;;;;;;5048735;28;20040;-60
2023/01/25 13:34:39;;;;;;;18.90;16.65;;;;;;;;;;5050935;28;20033;-60
2023/01/25 13:37:05;;;;;;;19.23;17.15;;;;;;;;;;5049947;28;20037;-60
2023/01/25 13:39:30;;;;;;;23.10;18.48;;;;;;;;;;5051127;28;20074;-60
2023/01/25 13:41:56;;;;;;;22.25;19.10;;;;;;;;;;5054891;28;20466;-59
2023/01/25 13:44:27;;;;;;;23.13;19.45;;;;;;;;;;5036675;28;20493;-60
2023/01/25 13:47:19;;;;;;;20.90;18.40;;;;;;;;;;5054531;28;20412;-60
2023/01/25 13:49:55;;;;;;;21.85;18.45;;;;;;;;;;5050169;28;20040;-60
2023/01/25 13:52:22;;;;;;;24.70;19.50;;;;;;;;;;5054515;28;20170;-59
2023/01/25 13:54:49;;;;;;;21.13;18.85;;;;;;;;;;5054252;28;20143;-61
2023/01/25 13:57:19;;;;;;;25.33;19.02;;;;;;;;;;5054504;28;20021;-61
2023/01/25 13:59:46;;;;;;;19.83;17.35;;;;;;;;;;5054200;28;20024;-60
2023/01/25 14:02:19;;;;;;;22.50;18.88;;;;;;;;;;5054421;28;20107;-60
2023/01/25 14:04:49;;;;;;;22.05;19.65;;;;;;;;;;5053541;28;20489;-61
2023/01/25 14:07:17;;;;;;;22.73;18.98;;;;;;;;;;5053461;28;20505;-60
2023/01/25 14:09:43;;;;;;;21.33;18.40;;;;;;;;;;5053094;28;20091;-60
2023/01/25 14:12:10;;;;;;;23.58;19.27;;;;;;;;;;5054129;28;20032;-60
2023/01/25 14:14:37;;;;;;;23.77;19.00;;;;;;;;;;5036012;28;20389;-59
2023/01/25 14:17:14;;;;;;;24.70;20.48;;;;;;;;;;5054145;28;20108;-60
2023/01/25 14:19:43;;;;;;;22.42;19.85;;;;;;;;;;5053252;28;20497;-60
2023/01/25 14:22:19;;;;;;;23.80;20.52;;;;;;;;;;5053906;28;20095;-60
2023/01/25 14:24:58;;;;;;;25.80;19.80;;;;;;;;;;5053641;28;20025;-60
2023/01/25 14:27:24;;;;;;;24.25;20.42;;;;;;;;;;5054304;28;20029;-60
2023/01/25 14:29:50;;;;;;;24.02;20.13;;;;;;;;;;5053054;28;20115;-60
2023/01/25 14:32:19;;;;;;;22.73;19.48;;;;;;;;;;5052397;28;20174;-60
2023/01/25 14:34:45;;;;;;;24.83;20.13;;;;;;;;;;5053358;28;20075;-60
2023/01/25 14:37:21;;;;;;;23.23;20.67;;;;;;;;;;5053764;28;20021;-60
2023/01/25 14:39:48;;;;;;;24.20;20.27;;;;;;;;;;5053404;28;20658;-60